»·PEaware :: N503AM KIFP-KVGT

N503AM :: KIFP-KVGT

FLIGHT INFORMATION

Flight Status: Arrived
Operator: Privately registered:
United States
More flights under this callsign
Pilot: Gary H. (18965)
Aircraft: CESSNA 172 SKYHAWK
(C172)
More flights by this aircraft type
Origin: KIFP Laughlin/Bullhead Intl
United States
Destination: KVGT North Las Vegas
United States
More flights between these airports :: More routes between these airports
Route: +EED UNPAS V237 BLD LAS
File this flight plan on PilotEdge
Remarks:
Altitude:
(Current/Filed)
8,000ft
Speed:
(Current/Filed)
110kts
Departed: 30-Jul-20 03:49 PM
Arrived: 30-Jul-20 04:52 PM
Distance/Time
Traveled:
70nm/1:03
Distance/Time
To Go:
Arrived

Flight Plot

Page will automatically refresh every two minutes.

Flight plan parsing failed; only flown route is shown


Map Options




Map Legend


Flown Route
Filed Route
Departure Airport
Arrival Airport
Navaid (VOR, NDB)
Fix

Horizontal Profiles

Position Reports

Time Latitude Longitude Heading Altitude Ground
Speed
30-Jul-20 15:22 35.158610 -114.556020 266 705ft 0kts
30-Jul-20 15:23 35.158610 -114.556020 266 705ft 0kts
30-Jul-20 15:24 35.158610 -114.556020 266 705ft 0kts
30-Jul-20 15:25 35.158610 -114.556020 266 705ft 0kts
30-Jul-20 15:26 35.158610 -114.556020 266 705ft 0kts
30-Jul-20 15:27 35.158610 -114.556020 266 705ft 0kts
30-Jul-20 15:28 35.158610 -114.556020 266 705ft 0kts
30-Jul-20 15:29 35.158610 -114.556020 266 705ft 0kts
30-Jul-20 15:30 35.158610 -114.556020 266 705ft 0kts
30-Jul-20 15:31 35.158610 -114.556020 266 705ft 0kts
30-Jul-20 15:32 35.158610 -114.556020 266 705ft 0kts
30-Jul-20 15:33 35.158610 -114.556020 266 705ft 0kts
30-Jul-20 15:34 35.158610 -114.556020 266 705ft 0kts
30-Jul-20 15:35 35.158610 -114.556020 266 705ft 0kts
30-Jul-20 15:36 35.158610 -114.556020 266 705ft 0kts
30-Jul-20 15:37 35.158610 -114.556020 266 705ft 0kts
30-Jul-20 15:38 35.158610 -114.556020 266 705ft 0kts
30-Jul-20 15:39 35.158610 -114.556020 266 705ft 0kts
30-Jul-20 15:40 35.158888 -114.556382 339 705ft 4kts
30-Jul-20 15:41 35.159547 -114.556869 278 705ft 4kts
30-Jul-20 15:42 35.160424 -114.558363 356 705ft 9kts
30-Jul-20 15:43 35.163512 -114.558628 356 705ft 12kts
30-Jul-20 15:44 35.166139 -114.558991 296 705ft 0kts
30-Jul-20 15:45 35.166139 -114.558991 296 705ft 0kts
30-Jul-20 15:46 35.166139 -114.558991 296 705ft 0kts
30-Jul-20 15:47 35.166219 -114.559349 274 705ft 8kts
30-Jul-20 15:48 35.152855 -114.559604 182 1015ft 82kts
30-Jul-20 15:49 35.127780 -114.559057 177 1787ft 95kts
30-Jul-20 15:50 35.100635 -114.555502 169 2555ft 96kts
30-Jul-20 15:51 35.075075 -114.548218 165 3321ft 94kts
30-Jul-20 15:52 35.049507 -114.540499 173 4010ft 94kts
30-Jul-20 15:53 35.023781 -114.537291 175 4699ft 91kts
30-Jul-20 15:54 34.998038 -114.534414 175 5293ft 94kts
30-Jul-20 15:55 34.971842 -114.531647 175 5886ft 93kts
30-Jul-20 15:56 34.946525 -114.526631 169 6459ft 92kts
30-Jul-20 15:57 34.925167 -114.534062 264 6903ft 94kts
30-Jul-20 15:58 34.945754 -114.549734 342 7355ft 96kts
30-Jul-20 15:59 34.971383 -114.556225 342 7844ft 92kts
30-Jul-20 16:00 34.996687 -114.562519 342 8258ft 95kts
30-Jul-20 16:01 35.023237 -114.569063 342 8678ft 98kts
30-Jul-20 16:02 35.049767 -114.575482 342 9163ft 95kts
30-Jul-20 16:03 35.075997 -114.581909 341 9589ft 98kts
30-Jul-20 16:04 35.103102 -114.588712 341 9973ft 101kts
30-Jul-20 16:05 35.131895 -114.596128 342 10001ft 105kts
30-Jul-20 16:06 35.160093 -114.603694 341 9997ft 103kts
30-Jul-20 16:07 35.187926 -114.611531 340 9995ft 102kts
30-Jul-20 16:09 35.188115 -114.611584 340 9995ft 102kts
30-Jul-20 16:10 35.206591 -114.616765 340 9994ft 102kts
30-Jul-20 16:11 35.234145 -114.624523 340 9992ft 101kts
30-Jul-20 16:12 35.261717 -114.632332 340 9991ft 101kts
30-Jul-20 16:13 35.289286 -114.640158 340 9990ft 101kts
30-Jul-20 16:14 35.316491 -114.648944 338 9989ft 101kts
30-Jul-20 16:15 35.343789 -114.657814 339 9988ft 101kts
30-Jul-20 16:16 35.371161 -114.666281 339 9987ft 101kts
30-Jul-20 16:17 35.398485 -114.674749 339 9986ft 101kts
30-Jul-20 16:18 35.425861 -114.683276 339 9985ft 101kts
30-Jul-20 16:19 35.453373 -114.691857 339 9986ft 102kts
30-Jul-20 16:20 35.481233 -114.700653 339 9987ft 104kts
30-Jul-20 16:21 35.509324 -114.709556 339 9987ft 104kts
30-Jul-20 16:22 35.537553 -114.718530 339 9986ft 104kts
30-Jul-20 16:23 35.565845 -114.727599 339 9986ft 105kts
30-Jul-20 16:24 35.594169 -114.736693 339 9986ft 106kts
30-Jul-20 16:24 35.617954 -114.744359 339 9986ft 106kts
30-Jul-20 16:26 35.651119 -114.755236 339 9897ft 111kts
30-Jul-20 16:27 35.675546 -114.763468 339 10007ft 99kts
30-Jul-20 16:27 35.698025 -114.771121 339 10008ft 100kts
30-Jul-20 16:28 35.725428 -114.779698 341 10006ft 102kts
30-Jul-20 16:30 35.757739 -114.789354 341 10005ft 102kts
30-Jul-20 16:30 35.780866 -114.796278 341 10004ft 103kts
30-Jul-20 16:31 35.808661 -114.804632 341 10002ft 103kts
30-Jul-20 16:32 35.836342 -114.813519 325 10004ft 100kts
30-Jul-20 16:33 35.858628 -114.833931 318 10006ft 100kts
30-Jul-20 16:34 35.880767 -114.854957 316 10004ft 100kts
30-Jul-20 16:35 35.902364 -114.876602 316 10002ft 100kts
30-Jul-20 16:36 35.924054 -114.898359 316 9999ft 100kts
30-Jul-20 16:37 35.945674 -114.920095 316 9996ft 100kts
30-Jul-20 16:38 35.967333 -114.941906 316 9993ft 100kts
30-Jul-20 16:39 35.988882 -114.963631 316 9909ft 98kts
30-Jul-20 16:40 36.011343 -114.986686 317 9214ft 106kts
30-Jul-20 16:41 36.033729 -115.009935 317 8512ft 104kts
30-Jul-20 16:42 36.055387 -115.032678 316 8014ft 94kts
30-Jul-20 16:43 36.073582 -115.050972 316 7808ft 91kts
30-Jul-20 16:44 36.097351 -115.073869 317 7128ft 116kts
30-Jul-20 16:45 36.123146 -115.097785 317 6423ft 116kts
30-Jul-20 16:46 36.149753 -115.119143 349 5709ft 121kts
30-Jul-20 16:47 36.183136 -115.114971 354 5003ft 118kts
30-Jul-20 16:48 36.213677 -115.120065 291 4222ft 109kts
30-Jul-20 16:49 36.213918 -115.155375 268 3306ft 71kts
30-Jul-20 16:50 36.213846 -115.180550 267 2303ft 60kts
30-Jul-20 16:51 36.212923 -115.193354 237 2188ft 11kts
30-Jul-20 16:52 36.212841 -115.193519 238 2188ft 2kts
30-Jul-20 16:53 36.211674 -115.195850 236 2194ft 14kts
30-Jul-20 16:54 36.211133 -115.196937 238 2195ft 0kts
30-Jul-20 16:55 36.210262 -115.198291 148 2196ft 9kts

Navigation Log

Ident Type
Flight plan parsing failed, navigation log unavailable